sensor_id;sensor_type;location;lat;lon;timestamp;P1;durP1;ratioP1;P2;durP2;ratioP2
38603;SDS011;24924;50.054;8.790;2023-02-23T00:01:22;29.15;;;17.13;;
38603;SDS011;24924;50.054;8.790;2023-02-23T00:03:50;36.28;;;18.10;;
38603;SDS011;24924;50.054;8.790;2023-02-23T00:06:18;28.45;;;17.95;;
38603;SDS011;24924;50.054;8.790;2023-02-23T00:08:45;29.10;;;17.37;;
38603;SDS011;24924;50.054;8.790;2023-02-23T00:11:16;31.25;;;16.85;;
38603;SDS011;24924;50.054;8.790;2023-02-23T00:13:44;28.70;;;16.52;;
38603;SDS011;24924;50.054;8.790;2023-02-23T00:16:12;30.13;;;17.33;;
38603;SDS011;24924;50.054;8.790;2023-02-23T00:18:46;26.42;;;16.75;;
38603;SDS011;24924;50.054;8.790;2023-02-23T00:23:56;28.50;;;17.20;;
38603;SDS011;24924;50.054;8.790;2023-02-23T00:26:31;27.52;;;17.45;;
38603;SDS011;24924;50.054;8.790;2023-02-23T00:29:10;36.50;;;20.13;;
38603;SDS011;24924;50.054;8.790;2023-02-23T00:31:41;39.47;;;21.33;;
38603;SDS011;24924;50.054;8.790;2023-02-23T00:34:09;42.57;;;21.37;;
38603;SDS011;24924;50.054;8.790;2023-02-23T00:36:36;40.47;;;22.08;;
38603;SDS011;24924;50.054;8.790;2023-02-23T00:39:05;41.28;;;21.92;;
38603;SDS011;24924;50.054;8.790;2023-02-23T00:41:53;41.45;;;21.98;;
38603;SDS011;24924;50.054;8.790;2023-02-23T00:44:21;41.45;;;21.85;;
38603;SDS011;24924;50.054;8.790;2023-02-23T00:46:47;42.40;;;21.70;;
38603;SDS011;24924;50.054;8.790;2023-02-23T00:49:15;43.58;;;23.02;;
38603;SDS011;24924;50.054;8.790;2023-02-23T00:51:43;45.45;;;21.92;;
38603;SDS011;24924;50.054;8.790;2023-02-23T00:54:12;41.38;;;21.95;;
38603;SDS011;24924;50.054;8.790;2023-02-23T00:56:40;45.33;;;22.90;;
38603;SDS011;24924;50.054;8.790;2023-02-23T00:59:06;39.23;;;20.70;;
38603;SDS011;24924;50.054;8.790;2023-02-23T01:01:32;42.85;;;22.20;;
38603;SDS011;24924;50.054;8.790;2023-02-23T01:03:59;40.60;;;21.77;;
38603;SDS011;24924;50.054;8.790;2023-02-23T01:06:26;40.17;;;21.65;;
38603;SDS011;24924;50.054;8.790;2023-02-23T01:08:52;41.87;;;21.83;;
38603;SDS011;24924;50.054;8.790;2023-02-23T01:11:22;44.47;;;22.40;;
38603;SDS011;24924;50.054;8.790;2023-02-23T01:13:52;48.80;;;23.75;;
38603;SDS011;24924;50.054;8.790;2023-02-23T01:16:20;45.13;;;21.65;;
38603;SDS011;24924;50.054;8.790;2023-02-23T01:18:50;40.88;;;22.27;;
38603;SDS011;24924;50.054;8.790;2023-02-23T01:21:18;41.30;;;22.47;;
38603;SDS011;24924;50.054;8.790;2023-02-23T01:23:50;42.42;;;21.67;;
38603;SDS011;24924;50.054;8.790;2023-02-23T01:26:18;43.65;;;23.38;;
38603;SDS011;24924;50.054;8.790;2023-02-23T01:28:51;44.03;;;22.52;;
38603;SDS011;24924;50.054;8.790;2023-02-23T01:31:18;44.75;;;23.17;;
38603;SDS011;24924;50.054;8.790;2023-02-23T01:33:45;41.20;;;22.47;;
38603;SDS011;24924;50.054;8.790;2023-02-23T01:36:12;43.53;;;22.00;;
38603;SDS011;24924;50.054;8.790;2023-02-23T01:38:39;44.70;;;22.60;;
38603;SDS011;24924;50.054;8.790;2023-02-23T01:41:05;42.60;;;22.25;;
38603;SDS011;24924;50.054;8.790;2023-02-23T01:43:34;40.55;;;23.33;;
38603;SDS011;24924;50.054;8.790;2023-02-23T01:46:18;40.20;;;21.10;;
38603;SDS011;24924;50.054;8.790;2023-02-23T01:48:44;47.75;;;22.92;;
38603;SDS011;24924;50.054;8.790;2023-02-23T01:51:14;40.00;;;23.23;;
38603;SDS011;24924;50.054;8.790;2023-02-23T01:53:45;40.90;;;21.58;;
38603;SDS011;24924;50.054;8.790;2023-02-23T01:56:17;43.95;;;22.88;;
38603;SDS011;24924;50.054;8.790;2023-02-23T01:58:50;39.87;;;21.07;;
38603;SDS011;24924;50.054;8.790;2023-02-23T02:01:19;43.00;;;22.70;;
38603;SDS011;24924;50.054;8.790;2023-02-23T02:03:51;47.38;;;23.52;;
38603;SDS011;24924;50.054;8.790;2023-02-23T02:06:23;41.42;;;23.48;;
38603;SDS011;24924;50.054;8.790;2023-02-23T02:08:53;47.35;;;24.10;;
38603;SDS011;24924;50.054;8.790;2023-02-23T02:11:23;45.97;;;22.60;;
38603;SDS011;24924;50.054;8.790;2023-02-23T02:13:51;42.67;;;23.38;;
38603;SDS011;24924;50.054;8.790;2023-02-23T02:16:40;47.05;;;24.15;;
38603;SDS011;24924;50.054;8.790;2023-02-23T02:22:05;43.17;;;23.80;;
38603;SDS011;24924;50.054;8.790;2023-02-23T02:33:41;46.88;;;23.98;;
38603;SDS011;24924;50.054;8.790;2023-02-23T02:39:25;44.00;;;23.40;;
38603;SDS011;24924;50.054;8.790;2023-02-23T02:44:57;52.10;;;25.02;;
38603;SDS011;24924;50.054;8.790;2023-02-23T02:50:24;50.65;;;25.00;;
38603;SDS011;24924;50.054;8.790;2023-02-23T02:53:06;47.47;;;24.50;;
38603;SDS011;24924;50.054;8.790;2023-02-23T02:55:35;48.83;;;24.63;;
38603;SDS011;24924;50.054;8.790;2023-02-23T02:58:05;48.95;;;25.63;;
38603;SDS011;24924;50.054;8.790;2023-02-23T03:00:37;52.40;;;26.30;;
38603;SDS011;24924;50.054;8.790;2023-02-23T03:03:39;49.67;;;25.75;;
38603;SDS011;24924;50.054;8.790;2023-02-23T03:06:32;48.37;;;25.13;;
38603;SDS011;24924;50.054;8.790;2023-02-23T03:09:26;51.28;;;26.35;;
38603;SDS011;24924;50.054;8.790;2023-02-23T03:12:25;52.55;;;24.63;;
38603;SDS011;24924;50.054;8.790;2023-02-23T03:15:21;45.15;;;22.90;;
38603;SDS011;24924;50.054;8.790;2023-02-23T03:18:52;48.20;;;24.63;;
38603;SDS011;24924;50.054;8.790;2023-02-23T03:21:50;49.70;;;23.40;;
38603;SDS011;24924;50.054;8.790;2023-02-23T03:24:53;52.15;;;25.10;;
38603;SDS011;24924;50.054;8.790;2023-02-23T03:28:02;52.67;;;25.13;;
38603;SDS011;24924;50.054;8.790;2023-02-23T03:34:15;49.28;;;24.80;;
38603;SDS011;24924;50.054;8.790;2023-02-23T03:37:08;47.10;;;22.80;;
38603;SDS011;24924;50.054;8.790;2023-02-23T03:40:17;49.83;;;23.65;;
38603;SDS011;24924;50.054;8.790;2023-02-23T03:43:12;43.58;;;22.42;;
38603;SDS011;24924;50.054;8.790;2023-02-23T03:46:06;46.20;;;22.88;;
38603;SDS011;24924;50.054;8.790;2023-02-23T03:48:54;47.00;;;22.75;;
38603;SDS011;24924;50.054;8.790;2023-02-23T03:51:43;41.63;;;21.77;;
38603;SDS011;24924;50.054;8.790;2023-02-23T03:54:40;41.45;;;21.52;;
38603;SDS011;24924;50.054;8.790;2023-02-23T03:57:30;44.35;;;23.38;;
38603;SDS011;24924;50.054;8.790;2023-02-23T04:00:20;48.72;;;23.33;;
38603;SDS011;24924;50.054;8.790;2023-02-23T04:03:11;49.38;;;23.77;;
38603;SDS011;24924;50.054;8.790;2023-02-23T04:05:59;43.53;;;23.63;;
38603;SDS011;24924;50.054;8.790;2023-02-23T04:08:44;46.72;;;23.88;;
38603;SDS011;24924;50.054;8.790;2023-02-23T04:11:39;47.67;;;24.70;;
38603;SDS011;24924;50.054;8.790;2023-02-23T04:17:10;49.92;;;24.50;;
38603;SDS011;24924;50.054;8.790;2023-02-23T04:19:37;42.63;;;23.63;;
38603;SDS011;24924;50.054;8.790;2023-02-23T04:22:03;50.72;;;25.13;;
38603;SDS011;24924;50.054;8.790;2023-02-23T04:24:29;48.25;;;24.90;;
38603;SDS011;24924;50.054;8.790;2023-02-23T04:26:55;50.08;;;24.05;;
38603;SDS011;24924;50.054;8.790;2023-02-23T04:29:21;49.50;;;24.00;;
38603;SDS011;24924;50.054;8.790;2023-02-23T04:31:48;47.75;;;23.63;;
38603;SDS011;24924;50.054;8.790;2023-02-23T04:34:14;49.92;;;24.45;;
38603;SDS011;24924;50.054;8.790;2023-02-23T04:36:40;48.20;;;24.13;;
38603;SDS011;24924;50.054;8.790;2023-02-23T04:39:07;52.28;;;24.30;;
38603;SDS011;24924;50.054;8.790;2023-02-23T04:41:32;51.53;;;23.57;;
38603;SDS011;24924;50.054;8.790;2023-02-23T04:43:58;43.97;;;23.23;;
38603;SDS011;24924;50.054;8.790;2023-02-23T04:46:24;39.93;;;21.87;;
38603;SDS011;24924;50.054;8.790;2023-02-23T04:48:50;45.20;;;22.67;;
38603;SDS011;24924;50.054;8.790;2023-02-23T04:51:16;41.75;;;22.13;;
38603;SDS011;24924;50.054;8.790;2023-02-23T04:53:42;44.42;;;22.02;;
38603;SDS011;24924;50.054;8.790;2023-02-23T04:56:08;43.78;;;21.83;;
38603;SDS011;24924;50.054;8.790;2023-02-23T04:58:35;43.03;;;21.47;;
38603;SDS011;24924;50.054;8.790;2023-02-23T05:01:05;39.63;;;20.98;;
38603;SDS011;24924;50.054;8.790;2023-02-23T05:03:32;40.83;;;22.23;;
38603;SDS011;24924;50.054;8.790;2023-02-23T05:05:59;43.65;;;22.17;;
38603;SDS011;24924;50.054;8.790;2023-02-23T05:08:25;44.73;;;23.33;;
38603;SDS011;24924;50.054;8.790;2023-02-23T05:10:51;43.27;;;23.03;;
38603;SDS011;24924;50.054;8.790;2023-02-23T05:13:17;45.78;;;22.45;;
38603;SDS011;24924;50.054;8.790;2023-02-23T05:15:43;46.05;;;23.50;;
38603;SDS011;24924;50.054;8.790;2023-02-23T05:18:09;45.40;;;23.17;;
38603;SDS011;24924;50.054;8.790;2023-02-23T05:20:35;48.22;;;23.20;;
38603;SDS011;24924;50.054;8.790;2023-02-23T05:23:01;46.03;;;24.13;;
38603;SDS011;24924;50.054;8.790;2023-02-23T05:25:27;47.33;;;23.57;;
38603;SDS011;24924;50.054;8.790;2023-02-23T05:27:53;43.20;;;22.38;;
38603;SDS011;24924;50.054;8.790;2023-02-23T05:30:19;44.35;;;22.92;;
38603;SDS011;24924;50.054;8.790;2023-02-23T05:32:45;45.55;;;23.42;;
38603;SDS011;24924;50.054;8.790;2023-02-23T05:35:11;46.10;;;22.33;;
38603;SDS011;24924;50.054;8.790;2023-02-23T05:37:37;43.20;;;23.15;;
38603;SDS011;24924;50.054;8.790;2023-02-23T05:40:04;47.33;;;22.92;;
38603;SDS011;24924;50.054;8.790;2023-02-23T05:42:30;43.17;;;21.85;;
38603;SDS011;24924;50.054;8.790;2023-02-23T05:44:56;50.08;;;23.02;;
38603;SDS011;24924;50.054;8.790;2023-02-23T05:47:22;41.37;;;21.17;;
38603;SDS011;24924;50.054;8.790;2023-02-23T05:49:48;42.95;;;21.23;;
38603;SDS011;24924;50.054;8.790;2023-02-23T05:52:14;43.40;;;21.15;;
38603;SDS011;24924;50.054;8.790;2023-02-23T05:54:39;40.93;;;21.03;;
38603;SDS011;24924;50.054;8.790;2023-02-23T05:57:06;44.20;;;22.77;;
38603;SDS011;24924;50.054;8.790;2023-02-23T05:59:32;37.92;;;19.52;;
38603;SDS011;24924;50.054;8.790;2023-02-23T06:01:58;42.40;;;21.75;;
38603;SDS011;24924;50.054;8.790;2023-02-23T06:04:24;37.58;;;20.05;;
38603;SDS011;24924;50.054;8.790;2023-02-23T06:06:50;37.37;;;19.80;;
38603;SDS011;24924;50.054;8.790;2023-02-23T06:09:16;39.47;;;21.27;;
38603;SDS011;24924;50.054;8.790;2023-02-23T06:11:42;38.70;;;20.60;;
38603;SDS011;24924;50.054;8.790;2023-02-23T06:14:08;42.42;;;21.67;;
38603;SDS011;24924;50.054;8.790;2023-02-23T06:16:34;37.60;;;20.65;;
38603;SDS011;24924;50.054;8.790;2023-02-23T06:19:00;39.43;;;20.40;;
38603;SDS011;24924;50.054;8.790;2023-02-23T06:21:26;38.60;;;20.70;;
38603;SDS011;24924;50.054;8.790;2023-02-23T06:23:53;39.10;;;20.20;;
38603;SDS011;24924;50.054;8.790;2023-02-23T06:26:19;35.83;;;19.35;;
38603;SDS011;24924;50.054;8.790;2023-02-23T06:28:45;40.83;;;21.45;;
38603;SDS011;24924;50.054;8.790;2023-02-23T06:31:11;40.30;;;21.27;;
38603;SDS011;24924;50.054;8.790;2023-02-23T06:33:37;41.38;;;21.38;;
38603;SDS011;24924;50.054;8.790;2023-02-23T06:36:03;40.73;;;21.37;;
38603;SDS011;24924;50.054;8.790;2023-02-23T06:38:29;44.13;;;21.75;;
38603;SDS011;24924;50.054;8.790;2023-02-23T06:40:55;41.15;;;22.65;;
38603;SDS011;24924;50.054;8.790;2023-02-23T06:43:21;38.03;;;20.65;;
38603;SDS011;24924;50.054;8.790;2023-02-23T06:45:47;40.50;;;20.80;;
38603;SDS011;24924;50.054;8.790;2023-02-23T06:48:14;45.90;;;24.35;;
38603;SDS011;24924;50.054;8.790;2023-02-23T06:50:41;47.22;;;24.25;;
38603;SDS011;24924;50.054;8.790;2023-02-23T06:53:08;51.65;;;24.65;;
38603;SDS011;24924;50.054;8.790;2023-02-23T06:55:34;50.53;;;24.40;;
38603;SDS011;24924;50.054;8.790;2023-02-23T06:58:00;51.00;;;25.10;;
38603;SDS011;24924;50.054;8.790;2023-02-23T07:00:26;52.20;;;25.90;;
38603;SDS011;24924;50.054;8.790;2023-02-23T07:02:55;54.17;;;25.02;;
38603;SDS011;24924;50.054;8.790;2023-02-23T07:05:22;49.50;;;25.58;;
38603;SDS011;24924;50.054;8.790;2023-02-23T07:07:47;50.90;;;26.37;;
38603;SDS011;24924;50.054;8.790;2023-02-23T07:10:13;57.70;;;26.23;;
38603;SDS011;24924;50.054;8.790;2023-02-23T07:12:39;52.70;;;25.80;;
38603;SDS011;24924;50.054;8.790;2023-02-23T07:15:05;52.17;;;25.65;;
38603;SDS011;24924;50.054;8.790;2023-02-23T07:17:31;54.53;;;27.00;;
38603;SDS011;24924;50.054;8.790;2023-02-23T07:19:57;62.40;;;27.97;;
38603;SDS011;24924;50.054;8.790;2023-02-23T07:22:23;61.72;;;27.90;;
38603;SDS011;24924;50.054;8.790;2023-02-23T07:24:53;60.75;;;28.23;;
38603;SDS011;24924;50.054;8.790;2023-02-23T07:27:19;55.30;;;27.05;;
38603;SDS011;24924;50.054;8.790;2023-02-23T07:29:45;63.30;;;28.37;;
38603;SDS011;24924;50.054;8.790;2023-02-23T07:32:11;65.47;;;31.60;;
38603;SDS011;24924;50.054;8.790;2023-02-23T07:34:37;71.85;;;32.17;;
38603;SDS011;24924;50.054;8.790;2023-02-23T07:37:04;68.37;;;30.37;;
38603;SDS011;24924;50.054;8.790;2023-02-23T07:39:30;74.45;;;31.85;;
38603;SDS011;24924;50.054;8.790;2023-02-23T07:41:57;69.00;;;30.02;;
38603;SDS011;24924;50.054;8.790;2023-02-23T07:44:22;75.57;;;31.07;;
38603;SDS011;24924;50.054;8.790;2023-02-23T07:46:48;74.67;;;30.80;;
38603;SDS011;24924;50.054;8.790;2023-02-23T07:49:14;70.32;;;32.03;;
38603;SDS011;24924;50.054;8.790;2023-02-23T07:51:40;74.93;;;31.47;;
38603;SDS011;24924;50.054;8.790;2023-02-23T07:54:06;80.15;;;31.20;;
38603;SDS011;24924;50.054;8.790;2023-02-23T07:56:32;77.40;;;31.85;;
38603;SDS011;24924;50.054;8.790;2023-02-23T07:58:58;74.97;;;32.77;;
38603;SDS011;24924;50.054;8.790;2023-02-23T08:01:24;71.90;;;31.80;;
38603;SDS011;24924;50.054;8.790;2023-02-23T08:03:50;71.68;;;32.22;;
38603;SDS011;24924;50.054;8.790;2023-02-23T08:06:17;69.78;;;32.15;;
38603;SDS011;24924;50.054;8.790;2023-02-23T08:08:43;70.63;;;30.42;;
38603;SDS011;24924;50.054;8.790;2023-02-23T08:11:10;60.83;;;30.93;;
38603;SDS011;24924;50.054;8.790;2023-02-23T08:13:36;68.60;;;31.02;;
38603;SDS011;24924;50.054;8.790;2023-02-23T08:16:02;73.85;;;31.15;;
38603;SDS011;24924;50.054;8.790;2023-02-23T08:18:29;71.97;;;32.00;;
38603;SDS011;24924;50.054;8.790;2023-02-23T08:20:57;63.13;;;29.53;;
38603;SDS011;24924;50.054;8.790;2023-02-23T08:23:25;62.00;;;29.20;;
38603;SDS011;24924;50.054;8.790;2023-02-23T08:25:52;63.22;;;29.50;;
38603;SDS011;24924;50.054;8.790;2023-02-23T08:28:18;63.30;;;28.10;;
38603;SDS011;24924;50.054;8.790;2023-02-23T08:30:44;60.97;;;27.77;;
38603;SDS011;24924;50.054;8.790;2023-02-23T08:33:10;61.40;;;27.42;;
38603;SDS011;24924;50.054;8.790;2023-02-23T08:35:36;61.33;;;27.20;;
38603;SDS011;24924;50.054;8.790;2023-02-23T08:38:02;60.60;;;27.58;;
38603;SDS011;24924;50.054;8.790;2023-02-23T08:40:28;58.47;;;25.37;;
38603;SDS011;24924;50.054;8.790;2023-02-23T08:42:54;57.35;;;27.63;;
38603;SDS011;24924;50.054;8.790;2023-02-23T08:45:20;54.88;;;26.88;;
38603;SDS011;24924;50.054;8.790;2023-02-23T08:47:46;61.33;;;26.83;;
38603;SDS011;24924;50.054;8.790;2023-02-23T08:50:13;54.70;;;25.77;;
38603;SDS011;24924;50.054;8.790;2023-02-23T08:52:39;56.70;;;26.90;;
38603;SDS011;24924;50.054;8.790;2023-02-23T08:55:08;58.85;;;28.23;;
38603;SDS011;24924;50.054;8.790;2023-02-23T08:57:35;54.10;;;25.88;;
38603;SDS011;24924;50.054;8.790;2023-02-23T09:00:03;61.65;;;28.35;;
38603;SDS011;24924;50.054;8.790;2023-02-23T09:02:39;59.60;;;26.57;;
38603;SDS011;24924;50.054;8.790;2023-02-23T09:05:06;62.42;;;27.50;;
38603;SDS011;24924;50.054;8.790;2023-02-23T09:07:32;64.93;;;28.58;;
38603;SDS011;24924;50.054;8.790;2023-02-23T09:09:58;59.65;;;26.27;;
38603;SDS011;24924;50.054;8.790;2023-02-23T09:12:24;57.57;;;27.27;;
38603;SDS011;24924;50.054;8.790;2023-02-23T09:14:50;55.97;;;26.73;;
38603;SDS011;24924;50.054;8.790;2023-02-23T09:17:18;56.80;;;26.83;;
38603;SDS011;24924;50.054;8.790;2023-02-23T09:19:44;62.30;;;26.52;;
38603;SDS011;24924;50.054;8.790;2023-02-23T09:22:10;53.63;;;25.52;;
38603;SDS011;24924;50.054;8.790;2023-02-23T09:24:36;61.77;;;26.30;;
38603;SDS011;24924;50.054;8.790;2023-02-23T09:27:03;53.85;;;25.60;;
38603;SDS011;24924;50.054;8.790;2023-02-23T09:29:31;52.95;;;23.92;;
38603;SDS011;24924;50.054;8.790;2023-02-23T09:31:58;45.42;;;23.95;;
38603;SDS011;24924;50.054;8.790;2023-02-23T09:34:24;42.22;;;21.90;;
38603;SDS011;24924;50.054;8.790;2023-02-23T09:36:55;45.10;;;23.53;;
38603;SDS011;24924;50.054;8.790;2023-02-23T09:39:20;48.45;;;23.38;;
38603;SDS011;24924;50.054;8.790;2023-02-23T09:47:19;40.35;;;21.08;;
38603;SDS011;24924;50.054;8.790;2023-02-23T09:49:56;42.30;;;21.53;;
38603;SDS011;24924;50.054;8.790;2023-02-23T09:52:26;41.20;;;21.02;;
38603;SDS011;24924;50.054;8.790;2023-02-23T09:55:08;41.38;;;21.33;;
38603;SDS011;24924;50.054;8.790;2023-02-23T09:57:37;41.35;;;21.17;;
38603;SDS011;24924;50.054;8.790;2023-02-23T10:00:10;40.20;;;20.45;;
38603;SDS011;24924;50.054;8.790;2023-02-23T10:05:38;40.17;;;20.38;;
38603;SDS011;24924;50.054;8.790;2023-02-23T10:08:20;39.95;;;21.60;;
38603;SDS011;24924;50.054;8.790;2023-02-23T10:10:58;41.33;;;21.27;;
38603;SDS011;24924;50.054;8.790;2023-02-23T10:19:31;35.75;;;19.35;;
38603;SDS011;24924;50.054;8.790;2023-02-23T10:22:07;36.35;;;18.77;;
38603;SDS011;24924;50.054;8.790;2023-02-23T10:24:35;38.15;;;18.52;;
38603;SDS011;24924;50.054;8.790;2023-02-23T10:27:26;35.85;;;17.52;;
38603;SDS011;24924;50.054;8.790;2023-02-23T10:29:57;36.97;;;18.53;;
38603;SDS011;24924;50.054;8.790;2023-02-23T10:34:53;31.23;;;16.98;;
38603;SDS011;24924;50.054;8.790;2023-02-23T10:37:21;35.97;;;17.48;;
38603;SDS011;24924;50.054;8.790;2023-02-23T10:39:48;32.83;;;16.70;;
38603;SDS011;24924;50.054;8.790;2023-02-23T10:42:25;33.33;;;17.50;;
38603;SDS011;24924;50.054;8.790;2023-02-23T10:44:56;31.30;;;17.38;;
38603;SDS011;24924;50.054;8.790;2023-02-23T10:47:26;29.60;;;15.65;;
38603;SDS011;24924;50.054;8.790;2023-02-23T10:49:55;30.50;;;16.15;;
38603;SDS011;24924;50.054;8.790;2023-02-23T10:52:28;33.80;;;17.33;;
38603;SDS011;24924;50.054;8.790;2023-02-23T10:54:59;30.43;;;16.53;;
38603;SDS011;24924;50.054;8.790;2023-02-23T10:57:29;34.75;;;18.40;;
38603;SDS011;24924;50.054;8.790;2023-02-23T11:00:10;31.27;;;16.85;;
38603;SDS011;24924;50.054;8.790;2023-02-23T11:02:48;32.13;;;16.77;;
38603;SDS011;24924;50.054;8.790;2023-02-23T11:05:34;32.23;;;17.20;;
38603;SDS011;24924;50.054;8.790;2023-02-23T11:08:18;32.13;;;16.83;;
38603;SDS011;24924;50.054;8.790;2023-02-23T11:10:58;31.50;;;16.88;;
38603;SDS011;24924;50.054;8.790;2023-02-23T11:13:42;34.58;;;17.50;;
38603;SDS011;24924;50.054;8.790;2023-02-23T11:16:14;33.95;;;17.35;;
38603;SDS011;24924;50.054;8.790;2023-02-23T11:18:52;40.00;;;19.48;;
38603;SDS011;24924;50.054;8.790;2023-02-23T11:21:33;32.30;;;17.07;;
38603;SDS011;24924;50.054;8.790;2023-02-23T11:26:52;31.65;;;16.13;;
38603;SDS011;24924;50.054;8.790;2023-02-23T11:29:41;32.67;;;17.52;;
38603;SDS011;24924;50.054;8.790;2023-02-23T11:32:15;30.42;;;16.63;;
38603;SDS011;24924;50.054;8.790;2023-02-23T11:34:45;34.83;;;16.97;;
38603;SDS011;24924;50.054;8.790;2023-02-23T11:39:54;31.75;;;17.10;;
38603;SDS011;24924;50.054;8.790;2023-02-23T11:42:22;29.48;;;15.75;;
38603;SDS011;24924;50.054;8.790;2023-02-23T11:47:45;25.10;;;14.07;;
38603;SDS011;24924;50.054;8.790;2023-02-23T11:50:20;27.58;;;14.63;;
38603;SDS011;24924;50.054;8.790;2023-02-23T11:52:54;24.77;;;13.63;;
38603;SDS011;24924;50.054;8.790;2023-02-23T11:55:31;26.70;;;14.45;;
38603;SDS011;24924;50.054;8.790;2023-02-23T11:58:08;25.70;;;13.93;;
38603;SDS011;24924;50.054;8.790;2023-02-23T12:00:57;23.77;;;13.77;;
38603;SDS011;24924;50.054;8.790;2023-02-23T12:03:25;24.58;;;13.88;;
38603;SDS011;24924;50.054;8.790;2023-02-23T12:05:55;27.50;;;14.00;;
38603;SDS011;24924;50.054;8.790;2023-02-23T12:10:59;25.70;;;14.95;;
38603;SDS011;24924;50.054;8.790;2023-02-23T12:13:39;25.60;;;14.07;;
38603;SDS011;24924;50.054;8.790;2023-02-23T12:16:12;21.75;;;12.65;;
38603;SDS011;24924;50.054;8.790;2023-02-23T12:21:20;17.90;;;10.95;;
38603;SDS011;24924;50.054;8.790;2023-02-23T12:23:47;18.20;;;11.20;;
38603;SDS011;24924;50.054;8.790;2023-02-23T12:26:17;15.87;;;9.33;;
38603;SDS011;24924;50.054;8.790;2023-02-23T12:34:51;14.57;;;9.30;;
38603;SDS011;24924;50.054;8.790;2023-02-23T12:40:53;13.80;;;8.47;;
38603;SDS011;24924;50.054;8.790;2023-02-23T12:43:06;17.38;;;8.45;;
38603;SDS011;24924;50.054;8.790;2023-02-23T12:45:48;15.90;;;8.18;;
38603;SDS011;24924;50.054;8.790;2023-02-23T12:48:24;15.25;;;8.50;;
38603;SDS011;24924;50.054;8.790;2023-02-23T12:50:57;14.73;;;9.00;;
38603;SDS011;24924;50.054;8.790;2023-02-23T12:53:28;16.10;;;9.53;;
38603;SDS011;24924;50.054;8.790;2023-02-23T13:01:20;17.13;;;9.57;;
38603;SDS011;24924;50.054;8.790;2023-02-23T13:06:55;17.03;;;8.70;;
38603;SDS011;24924;50.054;8.790;2023-02-23T13:09:40;14.77;;;8.48;;
38603;SDS011;24924;50.054;8.790;2023-02-23T13:12:33;15.80;;;8.77;;
38603;SDS011;24924;50.054;8.790;2023-02-23T13:17:37;14.30;;;9.07;;
38603;SDS011;24924;50.054;8.790;2023-02-23T13:23:02;15.93;;;9.70;;
38603;SDS011;24924;50.054;8.790;2023-02-23T13:28:39;17.98;;;9.70;;
38603;SDS011;24924;50.054;8.790;2023-02-23T13:31:21;14.38;;;8.93;;
38603;SDS011;24924;50.054;8.790;2023-02-23T13:33:50;14.90;;;8.73;;
38603;SDS011;24924;50.054;8.790;2023-02-23T13:36:18;15.18;;;8.57;;
38603;SDS011;24924;50.054;8.790;2023-02-23T13:41:40;16.10;;;9.00;;
38603;SDS011;24924;50.054;8.790;2023-02-23T13:44:17;15.65;;;8.57;;
38603;SDS011;24924;50.054;8.790;2023-02-23T13:49:39;15.48;;;8.10;;
38603;SDS011;24924;50.054;8.790;2023-02-23T13:55:31;12.27;;;7.05;;
38603;SDS011;24924;50.054;8.790;2023-02-23T13:57:54;10.73;;;6.25;;
38603;SDS011;24924;50.054;8.790;2023-02-23T14:00:28;11.67;;;6.30;;
38603;SDS011;24924;50.054;8.790;2023-02-23T14:02:54;10.40;;;6.38;;
38603;SDS011;24924;50.054;8.790;2023-02-23T14:05:24;12.18;;;6.30;;
38603;SDS011;24924;50.054;8.790;2023-02-23T14:07:53;14.50;;;6.47;;
38603;SDS011;24924;50.054;8.790;2023-02-23T14:15:49;10.05;;;5.47;;
38603;SDS011;24924;50.054;8.790;2023-02-23T14:18:32;11.38;;;5.00;;
38603;SDS011;24924;50.054;8.790;2023-02-23T14:21:04;8.80;;;4.88;;
38603;SDS011;24924;50.054;8.790;2023-02-23T14:23:49;9.70;;;4.95;;
38603;SDS011;24924;50.054;8.790;2023-02-23T14:26:34;7.10;;;4.77;;
38603;SDS011;24924;50.054;8.790;2023-02-23T14:29:21;8.77;;;4.72;;
38603;SDS011;24924;50.054;8.790;2023-02-23T14:31:56;11.60;;;4.95;;
38603;SDS011;24924;50.054;8.790;2023-02-23T14:37:28;11.30;;;5.32;;
38603;SDS011;24924;50.054;8.790;2023-02-23T14:40:15;12.03;;;5.23;;
38603;SDS011;24924;50.054;8.790;2023-02-23T14:42:45;9.18;;;5.05;;
38603;SDS011;24924;50.054;8.790;2023-02-23T14:45:21;10.77;;;5.25;;
38603;SDS011;24924;50.054;8.790;2023-02-23T14:47:51;11.65;;;5.55;;
38603;SDS011;24924;50.054;8.790;2023-02-23T14:50:24;8.88;;;5.50;;
38603;SDS011;24924;50.054;8.790;2023-02-23T14:52:52;9.70;;;5.50;;
38603;SDS011;24924;50.054;8.790;2023-02-23T14:55:21;9.82;;;5.45;;
38603;SDS011;24924;50.054;8.790;2023-02-23T14:57:50;11.45;;;5.78;;
38603;SDS011;24924;50.054;8.790;2023-02-23T15:02:59;12.60;;;6.13;;
38603;SDS011;24924;50.054;8.790;2023-02-23T15:05:41;12.23;;;5.70;;
38603;SDS011;24924;50.054;8.790;2023-02-23T15:08:17;12.13;;;6.72;;
38603;SDS011;24924;50.054;8.790;2023-02-23T15:10:48;11.20;;;6.13;;
38603;SDS011;24924;50.054;8.790;2023-02-23T15:16:14;14.43;;;7.97;;
38603;SDS011;24924;50.054;8.790;2023-02-23T15:18:44;14.90;;;9.07;;
38603;SDS011;24924;50.054;8.790;2023-02-23T15:21:17;17.42;;;8.68;;
38603;SDS011;24924;50.054;8.790;2023-02-23T15:23:45;13.30;;;7.75;;
38603;SDS011;24924;50.054;8.790;2023-02-23T15:26:25;15.50;;;7.70;;
38603;SDS011;24924;50.054;8.790;2023-02-23T15:29:30;14.25;;;7.78;;
38603;SDS011;24924;50.054;8.790;2023-02-23T15:31:50;14.83;;;7.80;;
38603;SDS011;24924;50.054;8.790;2023-02-23T15:34:19;13.13;;;8.15;;
38603;SDS011;24924;50.054;8.790;2023-02-23T15:36:51;14.93;;;8.10;;
38603;SDS011;24924;50.054;8.790;2023-02-23T15:39:38;14.32;;;8.10;;
38603;SDS011;24924;50.054;8.790;2023-02-23T15:42:15;13.38;;;7.75;;
38603;SDS011;24924;50.054;8.790;2023-02-23T15:44:47;13.63;;;8.17;;
38603;SDS011;24924;50.054;8.790;2023-02-23T15:47:23;19.23;;;8.77;;
38603;SDS011;24924;50.054;8.790;2023-02-23T15:50:01;15.23;;;8.80;;
38603;SDS011;24924;50.054;8.790;2023-02-23T15:52:49;17.00;;;8.15;;
38603;SDS011;24924;50.054;8.790;2023-02-23T15:55:22;14.63;;;8.20;;
38603;SDS011;24924;50.054;8.790;2023-02-23T16:00:31;15.30;;;8.77;;
38603;SDS011;24924;50.054;8.790;2023-02-23T16:03:02;18.58;;;8.43;;
38603;SDS011;24924;50.054;8.790;2023-02-23T16:05:30;15.63;;;8.98;;
38603;SDS011;24924;50.054;8.790;2023-02-23T16:10:47;17.70;;;9.60;;
38603;SDS011;24924;50.054;8.790;2023-02-23T16:13:16;17.95;;;8.95;;
38603;SDS011;24924;50.054;8.790;2023-02-23T16:15:45;16.55;;;8.75;;
38603;SDS011;24924;50.054;8.790;2023-02-23T16:18:13;17.27;;;9.35;;
38603;SDS011;24924;50.054;8.790;2023-02-23T16:20:48;16.33;;;8.43;;
38603;SDS011;24924;50.054;8.790;2023-02-23T16:25:46;17.05;;;9.52;;
38603;SDS011;24924;50.054;8.790;2023-02-23T16:28:18;16.25;;;9.20;;
38603;SDS011;24924;50.054;8.790;2023-02-23T16:30:52;18.52;;;8.98;;
38603;SDS011;24924;50.054;8.790;2023-02-23T16:33:24;18.10;;;9.70;;
38603;SDS011;24924;50.054;8.790;2023-02-23T16:38:34;19.40;;;9.77;;
38603;SDS011;24924;50.054;8.790;2023-02-23T16:41:20;17.02;;;9.90;;
38603;SDS011;24924;50.054;8.790;2023-02-23T16:43:46;19.55;;;10.55;;
38603;SDS011;24924;50.054;8.790;2023-02-23T16:46:14;18.52;;;10.30;;
38603;SDS011;24924;50.054;8.790;2023-02-23T16:48:41;17.97;;;9.27;;
38603;SDS011;24924;50.054;8.790;2023-02-23T16:51:10;18.77;;;9.10;;
38603;SDS011;24924;50.054;8.790;2023-02-23T16:53:38;17.65;;;9.48;;